sensor_id;sensor_type;location;lat;lon;timestamp;pressure;altitude;pressure_sealevel;temperature;humidity
65614;BME280;52283;49.292;10.572;2024-03-02T00:00:04;95371.41;;;6.65;100.00
65614;BME280;52283;49.292;10.572;2024-03-02T00:02:39;95378.47;;;6.72;100.00
65614;BME280;52283;49.292;10.572;2024-03-02T00:05:06;95378.50;;;6.66;100.00
65614;BME280;52283;49.292;10.572;2024-03-02T00:07:34;95373.44;;;6.87;100.00
65614;BME280;52283;49.292;10.572;2024-03-02T00:10:04;95383.03;;;6.75;100.00
65614;BME280;52283;49.292;10.572;2024-03-02T00:12:34;95390.84;;;6.77;100.00
65614;BME280;52283;49.292;10.572;2024-03-02T00:15:01;95375.72;;;6.72;100.00
65614;BME280;52283;49.292;10.572;2024-03-02T00:17:28;95373.41;;;6.59;100.00
65614;BME280;52283;49.292;10.572;2024-03-02T00:19:55;95370.91;;;6.67;100.00
65614;BME280;52283;49.292;10.572;2024-03-02T00:22:22;95368.63;;;6.65;100.00
65614;BME280;52283;49.292;10.572;2024-03-02T00:24:50;95375.47;;;6.70;100.00
65614;BME280;52283;49.292;10.572;2024-03-02T00:27:18;95375.72;;;6.72;100.00
65614;BME280;52283;49.292;10.572;2024-03-02T00:29:46;95376.47;;;6.72;100.00
65614;BME280;52283;49.292;10.572;2024-03-02T00:32:13;95382.25;;;6.63;100.00
65614;BME280;52283;49.292;10.572;2024-03-02T00:34:40;95373.69;;;6.67;100.00
65614;BME280;52283;49.292;10.572;2024-03-02T00:37:06;95375.66;;;6.38;100.00
65614;BME280;52283;49.292;10.572;2024-03-02T00:39:33;95373.84;;;6.24;100.00
65614;BME280;52283;49.292;10.572;2024-03-02T00:42:02;95369.34;;;6.43;100.00
65614;BME280;52283;49.292;10.572;2024-03-02T00:44:29;95366.81;;;6.29;100.00
65614;BME280;52283;49.292;10.572;2024-03-02T00:47:00;95370.66;;;6.48;100.00
65614;BME280;52283;49.292;10.572;2024-03-02T00:49:27;95372.16;;;6.55;100.00
65614;BME280;52283;49.292;10.572;2024-03-02T00:51:55;95372.88;;;6.44;100.00
65614;BME280;52283;49.292;10.572;2024-03-02T00:54:22;95366.31;;;6.25;100.00
65614;BME280;52283;49.292;10.572;2024-03-02T00:56:49;95369.81;;;6.20;100.00
65614;BME280;52283;49.292;10.572;2024-03-02T00:59:17;95365.50;;;6.07;100.00
65614;BME280;52283;49.292;10.572;2024-03-02T01:01:44;95364.00;;;6.18;100.00
65614;BME280;52283;49.292;10.572;2024-03-02T01:04:10;95360.28;;;6.37;100.00
65614;BME280;52283;49.292;10.572;2024-03-02T01:06:39;95357.47;;;6.21;100.00
65614;BME280;52283;49.292;10.572;2024-03-02T01:09:06;95359.00;;;6.44;100.00
65614;BME280;52283;49.292;10.572;2024-03-02T01:11:32;95368.13;;;6.50;100.00
65614;BME280;52283;49.292;10.572;2024-03-02T01:13:59;95373.66;;;6.45;100.00
65614;BME280;52283;49.292;10.572;2024-03-02T01:16:27;95369.84;;;6.42;100.00
65614;BME280;52283;49.292;10.572;2024-03-02T01:18:54;95365.28;;;6.22;100.00
65614;BME280;52283;49.292;10.572;2024-03-02T01:21:21;95374.09;;;6.09;100.00
65614;BME280;52283;49.292;10.572;2024-03-02T01:23:48;95364.06;;;6.29;100.00
65614;BME280;52283;49.292;10.572;2024-03-02T01:26:14;95368.53;;;6.15;100.00
65614;BME280;52283;49.292;10.572;2024-03-02T01:28:41;95374.38;;;6.28;100.00
65614;BME280;52283;49.292;10.572;2024-03-02T01:31:07;95367.34;;;6.44;100.00
65614;BME280;52283;49.292;10.572;2024-03-02T01:33:35;95379.47;;;6.47;100.00
65614;BME280;52283;49.292;10.572;2024-03-02T01:36:02;95378.19;;;6.36;100.00
65614;BME280;52283;49.292;10.572;2024-03-02T01:38:28;95378.69;;;6.35;100.00
65614;BME280;52283;49.292;10.572;2024-03-02T01:40:55;95377.94;;;6.40;100.00
65614;BME280;52283;49.292;10.572;2024-03-02T01:43:22;95379.97;;;6.51;100.00
65614;BME280;52283;49.292;10.572;2024-03-02T01:45:48;95379.19;;;6.33;100.00
65614;BME280;52283;49.292;10.572;2024-03-02T01:48:15;95382.72;;;6.39;100.00
65614;BME280;52283;49.292;10.572;2024-03-02T01:50:43;95383.72;;;6.36;100.00
65614;BME280;52283;49.292;10.572;2024-03-02T01:53:10;95380.44;;;6.38;100.00
65614;BME280;52283;49.292;10.572;2024-03-02T01:55:38;95375.44;;;6.53;100.00
65614;BME280;52283;49.292;10.572;2024-03-02T01:58:05;95375.19;;;6.46;100.00
65614;BME280;52283;49.292;10.572;2024-03-02T02:00:32;95376.19;;;6.48;100.00
65614;BME280;52283;49.292;10.572;2024-03-02T02:02:59;95374.66;;;6.41;100.00
65614;BME280;52283;49.292;10.572;2024-03-02T02:05:26;95379.69;;;6.43;100.00
65614;BME280;52283;49.292;10.572;2024-03-02T02:07:54;95377.69;;;6.38;100.00
65614;BME280;52283;49.292;10.572;2024-03-02T02:10:24;95379.97;;;6.51;100.00
65614;BME280;52283;49.292;10.572;2024-03-02T02:12:53;95383.97;;;6.38;100.00
65614;BME280;52283;49.292;10.572;2024-03-02T02:15:27;95385.22;;;6.26;100.00
65614;BME280;52283;49.292;10.572;2024-03-02T02:17:54;95384.53;;;6.48;100.00
65614;BME280;52283;49.292;10.572;2024-03-02T02:20:21;95380.72;;;6.51;100.00
65614;BME280;52283;49.292;10.572;2024-03-02T02:22:59;95376.94;;;6.54;100.00
65614;BME280;52283;49.292;10.572;2024-03-02T02:25:26;95376.69;;;6.63;100.00
65614;BME280;52283;49.292;10.572;2024-03-02T02:27:53;95382.75;;;6.62;100.00
65614;BME280;52283;49.292;10.572;2024-03-02T02:30:21;95376.72;;;6.69;100.00
65614;BME280;52283;49.292;10.572;2024-03-02T02:32:48;95376.94;;;6.60;100.00
65614;BME280;52283;49.292;10.572;2024-03-02T02:35:15;95377.97;;;6.62;100.00
65614;BME280;52283;49.292;10.572;2024-03-02T02:37:42;95378.22;;;6.59;100.00
65614;BME280;52283;49.292;10.572;2024-03-02T02:40:11;95377.47;;;6.69;100.00
65614;BME280;52283;49.292;10.572;2024-03-02T02:42:38;95372.16;;;6.49;100.00
65614;BME280;52283;49.292;10.572;2024-03-02T02:45:06;95377.72;;;6.71;100.00
65614;BME280;52283;49.292;10.572;2024-03-02T02:47:33;95370.66;;;6.48;100.00
65614;BME280;52283;49.292;10.572;2024-03-02T02:50:03;95370.38;;;6.57;100.00
65614;BME280;52283;49.292;10.572;2024-03-02T02:52:34;95369.16;;;6.69;100.00
65614;BME280;52283;49.292;10.572;2024-03-02T02:55:03;95362.78;;;6.41;100.00
65614;BME280;52283;49.292;10.572;2024-03-02T02:57:32;95364.31;;;6.36;100.00
65614;BME280;52283;49.292;10.572;2024-03-02T03:00:02;95359.22;;;6.24;100.00
65614;BME280;52283;49.292;10.572;2024-03-02T03:02:36;95362.03;;;6.40;100.00
65614;BME280;52283;49.292;10.572;2024-03-02T03:05:05;95368.06;;;6.22;100.00
65614;BME280;52283;49.292;10.572;2024-03-02T03:07:32;95357.44;;;6.15;100.00
65614;BME280;52283;49.292;10.572;2024-03-02T03:10:00;95357.50;;;6.26;100.00
65614;BME280;52283;49.292;10.572;2024-03-02T03:12:26;95362.00;;;6.18;100.00
65614;BME280;52283;49.292;10.572;2024-03-02T03:14:54;95368.59;;;6.32;100.00
65614;BME280;52283;49.292;10.572;2024-03-02T03:17:21;95365.31;;;6.39;100.00
65614;BME280;52283;49.292;10.572;2024-03-02T03:19:48;95369.59;;;6.29;100.00
65614;BME280;52283;49.292;10.572;2024-03-02T03:22:14;95367.63;;;6.46;100.00
65614;BME280;52283;49.292;10.572;2024-03-02T03:24:41;95368.56;;;6.21;100.00
65614;BME280;52283;49.292;10.572;2024-03-02T03:27:08;95366.78;;;6.23;100.00
65614;BME280;52283;49.292;10.572;2024-03-02T03:29:35;95360.78;;;6.41;100.00
65614;BME280;52283;49.292;10.572;2024-03-02T03:32:04;95367.63;;;6.52;100.00
65614;BME280;52283;49.292;10.572;2024-03-02T03:34:32;95369.63;;;6.62;100.00
65614;BME280;52283;49.292;10.572;2024-03-02T03:36:59;95367.34;;;6.44;100.00
65614;BME280;52283;49.292;10.572;2024-03-02T03:39:25;95373.66;;;6.56;100.00
65614;BME280;52283;49.292;10.572;2024-03-02T03:41:52;95369.63;;;6.62;100.00
65614;BME280;52283;49.292;10.572;2024-03-02T03:44:19;95371.16;;;6.63;100.00
65614;BME280;52283;49.292;10.572;2024-03-02T03:46:45;95368.34;;;6.30;100.00
65614;BME280;52283;49.292;10.572;2024-03-02T03:49:13;95364.81;;;6.29;100.00
65614;BME280;52283;49.292;10.572;2024-03-02T03:51:42;95367.03;;;6.20;100.00
65614;BME280;52283;49.292;10.572;2024-03-02T03:54:09;95368.75;;;6.00;100.00
65614;BME280;52283;49.292;10.572;2024-03-02T03:56:36;95360.47;;;6.11;100.00
65614;BME280;52283;49.292;10.572;2024-03-02T03:59:03;95366.44;;;5.88;100.00
65614;BME280;52283;49.292;10.572;2024-03-02T04:01:30;95361.56;;;5.71;100.00
65614;BME280;52283;49.292;10.572;2024-03-02T04:03:56;95353.25;;;5.77;100.00
65614;BME280;52283;49.292;10.572;2024-03-02T04:06:25;95355.63;;;5.90;100.00
65614;BME280;52283;49.292;10.572;2024-03-02T04:08:51;95365.41;;;5.85;100.00
65614;BME280;52283;49.292;10.572;2024-03-02T04:11:21;95358.91;;;5.94;100.00
65614;BME280;52283;49.292;10.572;2024-03-02T04:13:47;95364.59;;;5.73;100.00
65614;BME280;52283;49.292;10.572;2024-03-02T04:16:17;95367.13;;;5.82;100.00
65614;BME280;52283;49.292;10.572;2024-03-02T04:18:44;95363.13;;;5.84;100.00
65614;BME280;52283;49.292;10.572;2024-03-02T04:21:10;95361.78;;;5.62;100.00
65614;BME280;52283;49.292;10.572;2024-03-02T04:23:38;95368.09;;;5.68;100.00
65614;BME280;52283;49.292;10.572;2024-03-02T04:26:06;95366.84;;;5.69;100.00
65614;BME280;52283;49.292;10.572;2024-03-02T04:28:32;95369.56;;;5.58;100.00
65614;BME280;52283;49.292;10.572;2024-03-02T04:30:59;95371.66;;;5.80;100.00
65614;BME280;52283;49.292;10.572;2024-03-02T04:33:26;95361.56;;;5.71;100.00
65614;BME280;52283;49.292;10.572;2024-03-02T04:35:52;95371.91;;;5.76;100.00
65614;BME280;52283;49.292;10.572;2024-03-02T04:38:19;95376.44;;;5.68;100.00
65614;BME280;52283;49.292;10.572;2024-03-02T04:40:47;95376.63;;;5.59;100.00
65614;BME280;52283;49.292;10.572;2024-03-02T04:43:14;95373.63;;;5.63;100.00
65614;BME280;52283;49.292;10.572;2024-03-02T04:45:42;95377.56;;;5.45;100.00
65614;BME280;52283;49.292;10.572;2024-03-02T04:48:09;95379.00;;;5.83;100.00
65614;BME280;52283;49.292;10.572;2024-03-02T04:50:36;95383.97;;;5.62;100.00
65614;BME280;52283;49.292;10.572;2024-03-02T04:53:06;95381.88;;;5.51;100.00
65614;BME280;52283;49.292;10.572;2024-03-02T04:55:33;95384.44;;;5.61;100.00
65614;BME280;52283;49.292;10.572;2024-03-02T04:58:30;95382.84;;;5.43;100.00
65614;BME280;52283;49.292;10.572;2024-03-02T05:00:59;95371.72;;;5.37;100.00
65614;BME280;52283;49.292;10.572;2024-03-02T05:03:26;95377.31;;;5.43;100.00
65614;BME280;52283;49.292;10.572;2024-03-02T05:05:53;95376.25;;;5.40;100.00
65614;BME280;52283;49.292;10.572;2024-03-02T05:08:19;95380.38;;;5.50;100.00
65614;BME280;52283;49.292;10.572;2024-03-02T05:10:46;95374.31;;;5.52;100.00
65614;BME280;52283;49.292;10.572;2024-03-02T05:13:13;95373.13;;;5.64;100.00
65614;BME280;52283;49.292;10.572;2024-03-02T05:15:40;95370.31;;;5.59;100.00
65614;BME280;52283;49.292;10.572;2024-03-02T05:18:06;95367.88;;;5.24;100.00
65614;BME280;52283;49.292;10.572;2024-03-02T05:20:33;95375.97;;;5.33;100.00
65614;BME280;52283;49.292;10.572;2024-03-02T05:23:00;95368.91;;;5.26;100.00
65614;BME280;52283;49.292;10.572;2024-03-02T05:25:26;95371.78;;;5.43;100.00
65614;BME280;52283;49.292;10.572;2024-03-02T05:27:53;95380.88;;;5.55;100.00
65614;BME280;52283;49.292;10.572;2024-03-02T05:30:20;95382.13;;;5.48;100.00
65614;BME280;52283;49.292;10.572;2024-03-02T05:32:48;95377.59;;;5.50;100.00
65614;BME280;52283;49.292;10.572;2024-03-02T05:35:14;95393.75;;;5.58;100.00
65614;BME280;52283;49.292;10.572;2024-03-02T05:37:41;95392.13;;;5.40;100.00
65614;BME280;52283;49.292;10.572;2024-03-02T05:40:08;95385.63;;;5.43;100.00
65614;BME280;52283;49.292;10.572;2024-03-02T05:42:36;95382.72;;;5.63;100.00
65614;BME280;52283;49.292;10.572;2024-03-02T05:45:04;95388.50;;;5.65;100.00
65614;BME280;52283;49.292;10.572;2024-03-02T05:47:34;95395.06;;;5.68;100.00
65614;BME280;52283;49.292;10.572;2024-03-02T05:50:02;95389.72;;;5.59;100.00
65614;BME280;52283;49.292;10.572;2024-03-02T05:52:29;95392.63;;;5.38;100.00
65614;BME280;52283;49.292;10.572;2024-03-02T05:54:55;95400.31;;;5.60;100.00
65614;BME280;52283;49.292;10.572;2024-03-02T05:57:22;95405.13;;;5.65;100.00
65614;BME280;52283;49.292;10.572;2024-03-02T06:00:05;95398.84;;;5.70;100.00
65614;BME280;52283;49.292;10.572;2024-03-02T06:02:33;95401.50;;;5.48;100.00
65614;BME280;52283;49.292;10.572;2024-03-02T06:05:01;95391.22;;;5.54;100.00
65614;BME280;52283;49.292;10.572;2024-03-02T06:07:29;95403.16;;;5.71;100.00
65614;BME280;52283;49.292;10.572;2024-03-02T06:09:56;95410.22;;;5.78;100.00
65614;BME280;52283;49.292;10.572;2024-03-02T06:12:26;95400.88;;;5.27;100.00
65614;BME280;52283;49.292;10.572;2024-03-02T06:14:52;95406.06;;;5.51;100.00
65614;BME280;52283;49.292;10.572;2024-03-02T06:17:19;95400.78;;;5.53;100.00
65614;BME280;52283;49.292;10.572;2024-03-02T06:19:46;95406.22;;;5.36;100.00
65614;BME280;52283;49.292;10.572;2024-03-02T06:22:14;95403.25;;;5.45;100.00
65614;BME280;52283;49.292;10.572;2024-03-02T06:24:41;95413.94;;;5.64;100.00
65614;BME280;52283;49.292;10.572;2024-03-02T06:27:08;95413.28;;;5.37;100.00
65614;BME280;52283;49.292;10.572;2024-03-02T06:29:34;95409.81;;;5.48;100.00
65614;BME280;52283;49.292;10.572;2024-03-02T06:32:01;95418.69;;;5.58;100.00
65614;BME280;52283;49.292;10.572;2024-03-02T06:34:28;95414.00;;;5.32;100.00
65614;BME280;52283;49.292;10.572;2024-03-02T06:36:54;95418.81;;;5.37;100.00
65614;BME280;52283;49.292;10.572;2024-03-02T06:39:22;95408.06;;;5.50;100.00
65614;BME280;52283;49.292;10.572;2024-03-02T06:41:49;95405.69;;;5.75;100.00
65614;BME280;52283;49.292;10.572;2024-03-02T06:44:15;95417.22;;;5.62;100.00
65614;BME280;52283;49.292;10.572;2024-03-02T06:46:42;95417.50;;;5.70;100.00
65614;BME280;52283;49.292;10.572;2024-03-02T06:49:08;95414.25;;;5.77;100.00
65614;BME280;52283;49.292;10.572;2024-03-02T06:51:35;95415.97;;;5.63;100.00
65614;BME280;52283;49.292;10.572;2024-03-02T06:54:02;95417.91;;;5.51;100.00
65614;BME280;52283;49.292;10.572;2024-03-02T06:56:30;95422.06;;;5.73;100.00
65614;BME280;52283;49.292;10.572;2024-03-02T06:58:58;95419.34;;;5.84;100.00
65614;BME280;52283;49.292;10.572;2024-03-02T07:01:25;95407.56;;;5.52;100.00
65614;BME280;52283;49.292;10.572;2024-03-02T07:03:51;95407.84;;;5.60;100.00
65614;BME280;52283;49.292;10.572;2024-03-02T07:06:18;95413.50;;;5.82;100.00
65614;BME280;52283;49.292;10.572;2024-03-02T07:08:45;95413.63;;;5.99;100.00
65614;BME280;52283;49.292;10.572;2024-03-02T07:11:11;95412.50;;;5.79;100.00
65614;BME280;52283;49.292;10.572;2024-03-02T07:13:39;95412.66;;;6.07;100.00
65614;BME280;52283;49.292;10.572;2024-03-02T07:16:06;95422.50;;;6.14;100.00
65614;BME280;52283;49.292;10.572;2024-03-02T07:18:49;95427.06;;;6.17;100.00
65614;BME280;52283;49.292;10.572;2024-03-02T07:21:17;95418.22;;;6.13;100.00
65614;BME280;52283;49.292;10.572;2024-03-02T07:23:44;95428.38;;;6.27;100.00
65614;BME280;52283;49.292;10.572;2024-03-02T07:26:10;95432.16;;;6.35;100.00
65614;BME280;52283;49.292;10.572;2024-03-02T07:28:38;95437.97;;;6.37;100.00
65614;BME280;52283;49.292;10.572;2024-03-02T07:31:05;95429.94;;;6.51;100.00
65614;BME280;52283;49.292;10.572;2024-03-02T07:33:32;95432.91;;;6.36;100.00
65614;BME280;52283;49.292;10.572;2024-03-02T07:35:59;95426.38;;;6.39;100.00
65614;BME280;52283;49.292;10.572;2024-03-02T07:38:27;95431.44;;;6.46;100.00
65614;BME280;52283;49.292;10.572;2024-03-02T07:40:54;95438.78;;;6.55;100.00
65614;BME280;52283;49.292;10.572;2024-03-02T07:43:22;95436.28;;;6.68;100.00
65614;BME280;52283;49.292;10.572;2024-03-02T07:45:50;95436.00;;;6.49;100.00
65614;BME280;52283;49.292;10.572;2024-03-02T07:48:17;95434.47;;;6.59;100.00
65614;BME280;52283;49.292;10.572;2024-03-02T07:50:43;95439.50;;;6.44;100.00
65614;BME280;52283;49.292;10.572;2024-03-02T07:53:10;95437.47;;;6.33;100.00
65614;BME280;52283;49.292;10.572;2024-03-02T07:55:36;95441.06;;;6.62;100.00
65614;BME280;52283;49.292;10.572;2024-03-02T07:58:04;95446.84;;;6.58;100.00
65614;BME280;52283;49.292;10.572;2024-03-02T08:00:30;95440.31;;;6.78;100.00
65614;BME280;52283;49.292;10.572;2024-03-02T08:02:58;95435.31;;;6.93;100.00
65614;BME280;52283;49.292;10.572;2024-03-02T08:05:25;95444.13;;;6.81;100.00
65614;BME280;52283;49.292;10.572;2024-03-02T08:07:52;95437.81;;;6.91;100.00
65614;BME280;52283;49.292;10.572;2024-03-02T08:10:19;95430.44;;;6.49;100.00
65614;BME280;52283;49.292;10.572;2024-03-02T08:12:46;95427.94;;;6.85;100.00
65614;BME280;52283;49.292;10.572;2024-03-02T08:15:13;95427.72;;;7.22;100.00
65614;BME280;52283;49.292;10.572;2024-03-02T08:17:39;95423.34;;;7.77;100.00
65614;BME280;52283;49.292;10.572;2024-03-02T08:20:11;95423.53;;;7.95;100.00
65614;BME280;52283;49.292;10.572;2024-03-02T08:22:38;95420.28;;;7.86;100.00
65614;BME280;52283;49.292;10.572;2024-03-02T08:25:05;95419.84;;;7.48;100.00
65614;BME280;52283;49.292;10.572;2024-03-02T08:27:32;95429.88;;;7.96;100.00
65614;BME280;52283;49.292;10.572;2024-03-02T08:29:58;95422.44;;;8.21;100.00
65614;BME280;52283;49.292;10.572;2024-03-02T08:32:25;95420.88;;;8.37;100.00
65614;BME280;52283;49.292;10.572;2024-03-02T08:34:52;95423.66;;;8.37;100.00
65614;BME280;52283;49.292;10.572;2024-03-02T08:37:20;95422.91;;;8.36;100.00
65614;BME280;52283;49.292;10.572;2024-03-02T08:39:46;95425.84;;;8.49;100.00
65614;BME280;52283;49.292;10.572;2024-03-02T08:42:13;95435.75;;;8.45;100.00
65614;BME280;52283;49.292;10.572;2024-03-02T08:44:39;95434.44;;;8.57;100.00
65614;BME280;52283;49.292;10.572;2024-03-02T08:47:06;95431.13;;;8.94;100.00
65614;BME280;52283;49.292;10.572;2024-03-02T08:49:32;95426.13;;;9.23;100.00
65614;BME280;52283;49.292;10.572;2024-03-02T08:51:59;95433.28;;;9.12;100.00
65614;BME280;52283;49.292;10.572;2024-03-02T08:54:27;95425.44;;;9.16;100.00
65614;BME280;52283;49.292;10.572;2024-03-02T08:56:54;95429.66;;;9.53;100.00
65614;BME280;52283;49.292;10.572;2024-03-02T08:59:20;95436.28;;;9.20;100.00
65614;BME280;52283;49.292;10.572;2024-03-02T09:01:47;95434.75;;;9.49;100.00
65614;BME280;52283;49.292;10.572;2024-03-02T09:04:13;95439.06;;;9.20;100.00
65614;BME280;52283;49.292;10.572;2024-03-02T09:06:40;95453.66;;;9.02;100.00
65614;BME280;52283;49.292;10.572;2024-03-02T09:09:07;95443.06;;;9.55;100.00
65614;BME280;52283;49.292;10.572;2024-03-02T09:11:35;95432.81;;;9.93;100.00
65614;BME280;52283;49.292;10.572;2024-03-02T09:14:01;95438.56;;;9.76;100.00
65614;BME280;52283;49.292;10.572;2024-03-02T09:16:28;95430.50;;;10.16;100.00
65614;BME280;52283;49.292;10.572;2024-03-02T09:18:56;95429.13;;;10.28;100.00
65614;BME280;52283;49.292;10.572;2024-03-02T09:21:23;95433.59;;;10.12;100.00
65614;BME280;52283;49.292;10.572;2024-03-02T09:23:50;95428.78;;;10.13;100.00
65614;BME280;52283;49.292;10.572;2024-03-02T09:26:17;95424.84;;;10.46;100.00
65614;BME280;52283;49.292;10.572;2024-03-02T09:28:46;95425.28;;;10.31;100.00
65614;BME280;52283;49.292;10.572;2024-03-02T09:31:12;95429.41;;;10.67;100.00
65614;BME280;52283;49.292;10.572;2024-03-02T09:33:39;95437.50;;;9.55;100.00
65614;BME280;52283;49.292;10.572;2024-03-02T09:36:10;95451.97;;;9.23;100.00
65614;BME280;52283;49.292;10.572;2024-03-02T09:38:42;95445.91;;;8.83;100.00
65614;BME280;52283;49.292;10.572;2024-03-02T09:41:09;95449.19;;;8.88;100.00
65614;BME280;52283;49.292;10.572;2024-03-02T09:43:35;95427.69;;;9.72;100.00
65614;BME280;52283;49.292;10.572;2024-03-02T09:46:03;95415.28;;;10.41;100.00
65614;BME280;52283;49.292;10.572;2024-03-02T09:48:30;95419.34;;;10.59;100.00
65614;BME280;52283;49.292;10.572;2024-03-02T09:50:56;95424.91;;;10.59;100.00
65614;BME280;52283;49.292;10.572;2024-03-02T09:53:23;95429.09;;;9.60;100.00
65614;BME280;52283;49.292;10.572;2024-03-02T09:55:51;95425.28;;;9.58;100.00
65614;BME280;52283;49.292;10.572;2024-03-02T09:58:17;95435.94;;;9.29;100.00
65614;BME280;52283;49.292;10.572;2024-03-02T10:00:44;95440.31;;;9.79;100.00
65614;BME280;52283;49.292;10.572;2024-03-02T10:03:13;95423.41;;;10.15;100.00
65614;BME280;52283;49.292;10.572;2024-03-02T10:05:39;95433.00;;;10.00;100.00
65614;BME280;52283;49.292;10.572;2024-03-02T10:08:06;95424.47;;;10.12;100.00
65614;BME280;52283;49.292;10.572;2024-03-02T10:10:36;95423.81;;;11.18;100.00
65614;BME280;52283;49.292;10.572;2024-03-02T10:13:05;95413.00;;;11.28;100.00
65614;BME280;52283;49.292;10.572;2024-03-02T10:15:32;95417.34;;;11.23;100.00
65614;BME280;52283;49.292;10.572;2024-03-02T10:17:59;95409.13;;;11.31;100.00
65614;BME280;52283;49.292;10.572;2024-03-02T10:20:27;95424.38;;;10.79;100.00
65614;BME280;52283;49.292;10.572;2024-03-02T10:22:54;95422.22;;;10.72;100.00
65614;BME280;52283;49.292;10.572;2024-03-02T10:25:31;95419.41;;;10.72;100.00
65614;BME280;52283;49.292;10.572;2024-03-02T10:27:58;95402.84;;;11.70;100.00
65614;BME280;52283;49.292;10.572;2024-03-02T10:30:25;95392.56;;;11.01;100.00
65614;BME280;52283;49.292;10.572;2024-03-02T10:32:53;95387.78;;;11.86;100.00
65614;BME280;52283;49.292;10.572;2024-03-02T10:35:20;95400.59;;;10.73;100.00
65614;BME280;52283;49.292;10.572;2024-03-02T10:37:48;95403.50;;;10.99;100.00
65614;BME280;52283;49.292;10.572;2024-03-02T10:40:15;95399.91;;;11.63;100.00
65614;BME280;52283;49.292;10.572;2024-03-02T10:42:42;95380.81;;;12.06;100.00
65614;BME280;52283;49.292;10.572;2024-03-02T10:45:12;95376.69;;;12.07;100.00
65614;BME280;52283;49.292;10.572;2024-03-02T10:47:41;95375.50;;;11.50;100.00
65614;BME280;52283;49.292;10.572;2024-03-02T10:50:09;95370.03;;;12.10;100.00
65614;BME280;52283;49.292;10.572;2024-03-02T10:52:36;95372.06;;;12.23;100.00
65614;BME280;52283;49.292;10.572;2024-03-02T10:55:05;95375.81;;;11.46;100.00
65614;BME280;52283;49.292;10.572;2024-03-02T10:57:41;95390.16;;;11.69;100.00
65614;BME280;52283;49.292;10.572;2024-03-02T11:00:12;95371.66;;;11.79;100.00
65614;BME280;52283;49.292;10.572;2024-03-02T11:02:43;95373.00;;;11.59;100.00
65614;BME280;52283;49.292;10.572;2024-03-02T11:05:20;95363.69;;;11.83;100.00
65614;BME280;52283;49.292;10.572;2024-03-02T11:07:51;95350.25;;;11.95;100.00
65614;BME280;52283;49.292;10.572;2024-03-02T11:10:21;95373.31;;;11.43;100.00
65614;BME280;52283;49.292;10.572;2024-03-02T11:12:53;95371.28;;;11.56;100.00
65614;BME280;52283;49.292;10.572;2024-03-02T11:15:25;95350.56;;;12.52;100.00
65614;BME280;52283;49.292;10.572;2024-03-02T11:17:52;95340.19;;;12.60;100.00
65614;BME280;52283;49.292;10.572;2024-03-02T11:20:19;95347.88;;;12.46;100.00
65614;BME280;52283;49.292;10.572;2024-03-02T11:22:46;95343.84;;;12.89;100.00
65614;BME280;52283;49.292;10.572;2024-03-02T11:25:24;95339.19;;;12.71;100.00
65614;BME280;52283;49.292;10.572;2024-03-02T11:28:02;95340.91;;;12.40;100.00
65614;BME280;52283;49.292;10.572;2024-03-02T11:30:51;95347.09;;;11.72;100.00
65614;BME280;52283;49.292;10.572;2024-03-02T11:33:25;95340.84;;;12.19;100.00
65614;BME280;52283;49.292;10.572;2024-03-02T11:35:53;95343.88;;;12.08;100.00
65614;BME280;52283;49.292;10.572;2024-03-02T11:38:19;95343.81;;;12.34;100.00
65614;BME280;52283;49.292;10.572;2024-03-02T11:40:48;95338.59;;;11.78;100.00
65614;BME280;52283;49.292;10.572;2024-03-02T11:43:14;95324.44;;;12.70;100.00
65614;BME280;52283;49.292;10.572;2024-03-02T11:45:42;95321.16;;;12.11;100.00
65614;BME280;52283;49.292;10.572;2024-03-02T11:48:11;95323.25;;;12.66;100.00
65614;BME280;52283;49.292;10.572;2024-03-02T11:50:40;95321.00;;;12.64;100.00
65614;BME280;52283;49.292;10.572;2024-03-02T11:53:08;95318.91;;;12.78;100.00
65614;BME280;52283;49.292;10.572;2024-03-02T11:55:36;95316.34;;;12.33;100.00
65614;BME280;52283;49.292;10.572;2024-03-02T11:58:04;95321.97;;;12.19;100.00
65614;BME280;52283;49.292;10.572;2024-03-02T12:00:31;95318.75;;;12.83;100.00
65614;BME280;52283;49.292;10.572;2024-03-02T12:03:00;95298.44;;;13.11;99.00
65614;BME280;52283;49.292;10.572;2024-03-02T12:05:27;95300.03;;;13.20;99.57
65614;BME280;52283;49.292;10.572;2024-03-02T12:07:56;95300.63;;;12.64;100.00
65614;BME280;52283;49.292;10.572;2024-03-02T12:10:22;95301.47;;;12.93;99.80
65614;BME280;52283;49.292;10.572;2024-03-02T12:12:55;95301.94;;;13.25;100.00
65614;BME280;52283;49.292;10.572;2024-03-02T12:15:25;95294.13;;;13.10;99.30
65614;BME280;52283;49.292;10.572;2024-03-02T12:17:53;95287.66;;;12.40;100.00
65614;BME280;52283;49.292;10.572;2024-03-02T12:20:20;95291.94;;;12.54;100.00
65614;BME280;52283;49.292;10.572;2024-03-02T12:22:46;95273.03;;;14.02;96.45
65614;BME280;52283;49.292;10.572;2024-03-02T12:25:13;95280.06;;;13.24;97.32
65614;BME280;52283;49.292;10.572;2024-03-02T12:27:40;95258.91;;;13.87;94.09
65614;BME280;52283;49.292;10.572;2024-03-02T12:30:07;95272.28;;;13.66;97.10
65614;BME280;52283;49.292;10.572;2024-03-02T12:32:37;95256.25;;;14.18;92.31
65614;BME280;52283;49.292;10.572;2024-03-02T12:35:05;95250.59;;;14.10;92.15
65614;BME280;52283;49.292;10.572;2024-03-02T12:37:31;95242.59;;;14.22;89.23
65614;BME280;52283;49.292;10.572;2024-03-02T12:39:58;95259.81;;;13.75;93.80
65614;BME280;52283;49.292;10.572;2024-03-02T12:42:25;95250.31;;;13.85;92.52
65614;BME280;52283;49.292;10.572;2024-03-02T12:44:52;95260.06;;;12.44;99.53
65614;BME280;52283;49.292;10.572;2024-03-02T12:47:20;95263.44;;;12.84;100.00
65614;BME280;52283;49.292;10.572;2024-03-02T12:49:48;95264.13;;;12.98;98.81